Time;durP1;ratioP1;P1;durP2;ratioP2;P2;SDS_P1;SDS_P2;PMS_P1;PMS_P2;Temp;Humidity;BMP_temperature;BMP_pressure;BME280_temperature;BME280_humidity;BME280_pressure;Samples;Min_cycle;Max_cycle;Signal;HPM_P1;HPM_P2
2019/07/12 00:02:05;;;;;;;4.1;3;;;;;;;;;;;;;
2019/07/12 00:04:28;;;;;;;4.5;3;;;;;;;;;;;;;
2019/07/12 00:06:53;;;;;;;5.6;2.6;;;;;;;;;;;;;
2019/07/12 00:09:18;;;;;;;3.8;2.6;;;;;;;;;;;;;
2019/07/12 00:11:46;;;;;;;3.8;2.6;;;;;;;;;;;;;
2019/07/12 00:14:12;;;;;;;4.3;3;;;;;;;;;;;;;
2019/07/12 00:16:33;;;;;;;3.8;2.6;;;;;;;;;;;;;
2019/07/12 00:18:59;;;;;;;4.6;2.9;;;;;;;;;;;;;
2019/07/12 00:21:24;;;;;;;3.8;2.9;;;;;;;;;;;;;
2019/07/12 00:23:49;;;;;;;4.5;3.1;;;;;;;;;;;;;
2019/07/12 00:26:15;;;;;;;3.6;3.3;;;;;;;;;;;;;
2019/07/12 00:28:39;;;;;;;4.8;2.8;;;;;;;;;;;;;
2019/07/12 00:31:09;;;;;;;5.1;2.4;;;;;;;;;;;;;
2019/07/12 00:33:32;;;;;;;3.6;2.8;;;;;;;;;;;;;
2019/07/12 00:35:55;;;;;;;7.2;3;;;;;;;;;;;;;
2019/07/12 00:38:20;;;;;;;3;2.7;;;;;;;;;;;;;
2019/07/12 00:40:47;;;;;;;3.8;3.2;;;;;;;;;;;;;
2019/07/12 00:43:10;;;;;;;5.3;3.1;;;;;;;;;;;;;
2019/07/12 00:45:35;;;;;;;4.8;3.3;;;;;;;;;;;;;
2019/07/12 00:48:01;;;;;;;4.6;2.6;;;;;;;;;;;;;
2019/07/12 00:50:26;;;;;;;3.8;2.6;;;;;;;;;;;;;
2019/07/12 00:52:51;;;;;;;4.5;3;;;;;;;;;;;;;
2019/07/12 00:55:18;;;;;;;3.8;3.1;;;;;;;;;;;;;
2019/07/12 00:57:42;;;;;;;4.3;3;;;;;;;;;;;;;
2019/07/12 01:00:06;;;;;;;5.8;3.1;;;;;;;;;;;;;
2019/07/12 01:02:32;;;;;;;5.4;3.5;;;;;;;;;;;;;
2019/07/12 01:05:00;;;;;;;3.3;3;;;;;;;;;;;;;
2019/07/12 01:07:22;;;;;;;6.4;3.1;;;;;;;;;;;;;
2019/07/12 01:09:47;;;;;;;3.5;2.8;;;;;;;;;;;;;
2019/07/12 01:12:13;;;;;;;3.2;2.8;;;;;;;;;;;;;
2019/07/12 01:14:41;;;;;;;2.9;2.6;;;;;;;;;;;;;
2019/07/12 01:17:03;;;;;;;4.6;2.7;;;;;;;;;;;;;
2019/07/12 01:19:29;;;;;;;4.7;2.9;;;;;;;;;;;;;
2019/07/12 01:21:55;;;;;;;3.8;3.1;;;;;;;;;;;;;
2019/07/12 01:24:23;;;;;;;4.3;2.9;;;;;;;;;;;;;
2019/07/12 01:26:46;;;;;;;3.7;3.2;;;;;;;;;;;;;
2019/07/12 01:29:10;;;;;;;6;3.1;;;;;;;;;;;;;
2019/07/12 01:31:34;;;;;;;5.1;3;;;;;;;;;;;;;
2019/07/12 01:34:01;;;;;;;3.5;2.8;;;;;;;;;;;;;
2019/07/12 01:36:29;;;;;;;3.6;2.9;;;;;;;;;;;;;
2019/07/12 01:38:50;;;;;;;3.9;2.9;;;;;;;;;;;;;
2019/07/12 01:41:16;;;;;;;4.8;2.9;;;;;;;;;;;;;
2019/07/12 01:43:43;;;;;;;5.1;3.1;;;;;;;;;;;;;
2019/07/12 01:46:06;;;;;;;4.7;3.3;;;;;;;;;;;;;
2019/07/12 01:48:30;;;;;;;4.4;2.8;;;;;;;;;;;;;
2019/07/12 01:50:56;;;;;;;3.2;2.7;;;;;;;;;;;;;
2019/07/12 01:53:22;;;;;;;6.5;2.9;;;;;;;;;;;;;
2019/07/12 01:55:46;;;;;;;5;2.9;;;;;;;;;;;;;
2019/07/12 01:58:14;;;;;;;4.2;3.1;;;;;;;;;;;;;
2019/07/12 02:00:43;;;;;;;6.1;3.2;;;;;;;;;;;;;
2019/07/12 02:03:08;;;;;;;3.2;2.8;;;;;;;;;;;;;
2019/07/12 02:05:29;;;;;;;4.3;2.6;;;;;;;;;;;;;
2019/07/12 02:07:55;;;;;;;3.7;2.8;;;;;;;;;;;;;
2019/07/12 02:10:24;;;;;;;4.3;2.6;;;;;;;;;;;;;
2019/07/12 02:12:50;;;;;;;4.6;2.5;;;;;;;;;;;;;
2019/07/12 02:15:12;;;;;;;4.3;2.4;;;;;;;;;;;;;
2019/07/12 02:17:36;;;;;;;3.2;2.6;;;;;;;;;;;;;
2019/07/12 02:20:03;;;;;;;4.9;2.7;;;;;;;;;;;;;
2019/07/12 02:22:30;;;;;;;3.6;2.4;;;;;;;;;;;;;
2019/07/12 02:24:54;;;;;;;3.5;2.9;;;;;;;;;;;;;
2019/07/12 02:27:17;;;;;;;4.7;3;;;;;;;;;;;;;
2019/07/12 02:29:42;;;;;;;4.6;2.4;;;;;;;;;;;;;
2019/07/12 02:32:07;;;;;;;4.5;2.2;;;;;;;;;;;;;
2019/07/12 02:34:32;;;;;;;4;2.8;;;;;;;;;;;;;
2019/07/12 02:36:58;;;;;;;4.9;2.8;;;;;;;;;;;;;
2019/07/12 02:39:24;;;;;;;3.9;2.4;;;;;;;;;;;;;
2019/07/12 02:41:49;;;;;;;2.9;2;;;;;;;;;;;;;
2019/07/12 02:44:14;;;;;;;3.7;2.1;;;;;;;;;;;;;
2019/07/12 02:46:40;;;;;;;4.6;2.1;;;;;;;;;;;;;
2019/07/12 02:49:07;;;;;;;3.5;2.1;;;;;;;;;;;;;
2019/07/12 02:51:33;;;;;;;3.6;2;;;;;;;;;;;;;
2019/07/12 02:53:55;;;;;;;4.9;2.1;;;;;;;;;;;;;
2019/07/12 02:56:20;;;;;;;6.2;2.2;;;;;;;;;;;;;
2019/07/12 02:58:47;;;;;;;2.3;1.9;;;;;;;;;;;;;
2019/07/12 03:01:13;;;;;;;2.8;1.9;;;;;;;;;;;;;
2019/07/12 03:03:37;;;;;;;3.3;2.1;;;;;;;;;;;;;
2019/07/12 03:06:00;;;;;;;2.7;2.2;;;;;;;;;;;;;
2019/07/12 03:08:28;;;;;;;2.8;2.5;;;;;;;;;;;;;
2019/07/12 03:10:51;;;;;;;2.5;2.3;;;;;;;;;;;;;
2019/07/12 03:13:16;;;;;;;4.9;2.2;;;;;;;;;;;;;
2019/07/12 03:15:40;;;;;;;2.3;2.1;;;;;;;;;;;;;
2019/07/12 03:18:09;;;;;;;3.4;2.1;;;;;;;;;;;;;
2019/07/12 03:20:33;;;;;;;4.6;2;;;;;;;;;;;;;
2019/07/12 03:22:56;;;;;;;4.3;2.3;;;;;;;;;;;;;
2019/07/12 03:25:22;;;;;;;4.1;2.6;;;;;;;;;;;;;
2019/07/12 03:27:56;;;;;;;5;2.6;;;;;;;;;;;;;
2019/07/12 03:30:13;;;;;;;2.7;2.4;;;;;;;;;;;;;
2019/07/12 03:32:40;;;;;;;2.9;1.9;;;;;;;;;;;;;
2019/07/12 03:35:02;;;;;;;3.7;2.2;;;;;;;;;;;;;
2019/07/12 03:37:27;;;;;;;3.7;2.2;;;;;;;;;;;;;
2019/07/12 03:39:53;;;;;;;3.9;2.3;;;;;;;;;;;;;
2019/07/12 03:42:18;;;;;;;5.8;2;;;;;;;;;;;;;
2019/07/12 03:44:43;;;;;;;3.2;2.4;;;;;;;;;;;;;
2019/07/12 03:47:08;;;;;;;2.7;2.1;;;;;;;;;;;;;
2019/07/12 03:49:37;;;;;;;2.9;2;;;;;;;;;;;;;
2019/07/12 03:51:57;;;;;;;4.4;2.3;;;;;;;;;;;;;
2019/07/12 03:54:23;;;;;;;3.5;2.3;;;;;;;;;;;;;
2019/07/12 03:56:49;;;;;;;5.2;2.4;;;;;;;;;;;;;
2019/07/12 03:59:18;;;;;;;4.6;2.1;;;;;;;;;;;;;
2019/07/12 04:02:31;;;;;;;3.4;1.9;;;;;;;14.88;86.79199;937.1589;;;;
2019/07/12 04:04:57;;;;;;;3.4;2.5;;;;;;;14.7;87.72363;937.1833;;;;
2019/07/12 04:10:26;;;;;;;3.4;2.2;;;;;;;14.55;89.06641;937.1955;;;;
2019/07/12 04:12:53;;;;;;;2.8;2.2;;;;;;;14.61;88.62793;937.2399;;;;
2019/07/12 04:15:18;;;;;;;4.3;2.4;;;;;;;14.68;88.12402;937.2629;;;;
2019/07/12 04:17:50;;;;;;;4.1;2.4;;;;;;;14.66;88.08594;937.231;;;;
2019/07/12 04:20:15;;;;;;;4.7;3.2;;;;;;;14.74;87.97363;937.2728;;;;
2019/07/12 04:22:38;;;;;;;8.7;5;;;;;;;14.82;87.55176;937.226;;;;
2019/07/12 04:25:06;;;;;;;6.2;3.1;;;;;;;14.99;86.78027;937.2958;;;;
2019/07/12 04:27:30;;;;;;;5;2.8;;;;;;;15.23;85.32617;937.1873;;;;
2019/07/12 04:29:57;;;;;;;5.7;2.8;;;;;;;15.15;85.35645;937.2569;;;;
2019/07/12 04:32:24;;;;;;;5.1;2.3;;;;;;;15.21;84.98828;937.1808;;;;
2019/07/12 04:34:50;;;;;;;4.4;2.4;;;;;;;15.1;85.85352;937.1772;;;;
2019/07/12 04:37:17;;;;;;;3.8;2.1;;;;;;;15;86.08789;937.205;;;;
2019/07/12 04:39:44;;;;;;;2.3;1.9;;;;;;;15.02;85.94336;937.2324;;;;
2019/07/12 04:42:12;;;;;;;4.8;2.4;;;;;;;15.21;85.59961;937.1512;;;;
2019/07/12 04:44:38;;;;;;;3.7;2.3;;;;;;;15.26;85.53027;937.1581;;;;
2019/07/12 04:47:06;;;;;;;4.3;2.5;;;;;;;15.17;85.75488;937.1852;;;;
2019/07/12 04:49:35;;;;;;;4.1;2.1;;;;;;;14.95;86.45801;937.1599;;;;
2019/07/12 04:51:59;;;;;;;2.6;2;;;;;;;14.85;87.44336;937.2008;;;;
2019/07/12 04:54:22;;;;;;;3.8;2.1;;;;;;;14.75;88.48438;937.2078;;;;
2019/07/12 04:56:46;;;;;;;3.9;2.1;;;;;;;14.82;87.99121;937.238;;;;
2019/07/12 04:59:11;;;;;;;5.7;2.1;;;;;;;15.06;86.82715;937.1174;;;;
2019/07/12 05:01:37;;;;;;;2.5;1.7;;;;;;;;;;;;;
2019/07/12 05:04:03;;;;;;;4;2.1;;;;;;;;;;;;;
2019/07/12 05:06:28;;;;;;;3.8;1.9;;;;;;;;;;;;;
2019/07/12 05:08:52;;;;;;;3.5;1.6;;;;;;;;;;;;;
2019/07/12 05:11:19;;;;;;;3;2;;;;;;;;;;;;;
2019/07/12 05:13:43;;;;;;;4.4;2;;;;;;;;;;;;;
2019/07/12 05:16:10;;;;;;;3.1;2.1;;;;;;;;;;;;;
2019/07/12 05:18:37;;;;;;;5.4;2.7;;;;;;;;;;;;;
2019/07/12 05:20:58;;;;;;;3.4;2.2;;;;;;;;;;;;;
2019/07/12 05:23:32;;;;;;;3.2;2.3;;;;;;;;;;;;;
2019/07/12 05:25:52;;;;;;;5.1;2.2;;;;;;;;;;;;;
2019/07/12 05:28:14;;;;;;;3.2;2.8;;;;;;;;;;;;;
2019/07/12 05:30:40;;;;;;;5;3.2;;;;;;;;;;;;;
2019/07/12 05:33:04;;;;;;;8.1;2.8;;;;;;;;;;;;;
2019/07/12 05:35:33;;;;;;;3;2.6;;;;;;;;;;;;;
2019/07/12 05:37:54;;;;;;;3.8;2.5;;;;;;;;;;;;;
2019/07/12 05:40:19;;;;;;;4.6;2.8;;;;;;;;;;;;;
2019/07/12 05:42:44;;;;;;;6.2;3.3;;;;;;;;;;;;;
2019/07/12 05:45:08;;;;;;;5.3;3.2;;;;;;;;;;;;;
2019/07/12 05:47:34;;;;;;;4.7;2.6;;;;;;;;;;;;;
2019/07/12 05:49:59;;;;;;;4.5;2.8;;;;;;;;;;;;;
2019/07/12 05:52:24;;;;;;;4.4;2.9;;;;;;;;;;;;;
2019/07/12 05:54:52;;;;;;;5.5;2.6;;;;;;;;;;;;;
2019/07/12 05:57:14;;;;;;;4;2.6;;;;;;;;;;;;;
2019/07/12 05:59:44;;;;;;;4.4;2.4;;;;;;;;;;;;;
2019/07/12 06:02:06;;;;;;;10.1;5;;;;;;;;;;;;;
2019/07/12 06:04:30;;;;;;;6;2.7;;;;;;;;;;;;;
2019/07/12 06:07:00;;;;;;;5.7;2.2;;;;;;;;;;;;;
2019/07/12 06:09:21;;;;;;;4.5;2.3;;;;;;;;;;;;;
2019/07/12 06:11:45;;;;;;;7.5;2.4;;;;;;;;;;;;;
2019/07/12 06:14:11;;;;;;;4.8;2.6;;;;;;;;;;;;;
2019/07/12 06:16:36;;;;;;;6.7;2.6;;;;;;;;;;;;;
2019/07/12 06:19:03;;;;;;;4.4;2.3;;;;;;;;;;;;;
2019/07/12 06:21:29;;;;;;;4.6;2.2;;;;;;;;;;;;;
2019/07/12 06:23:54;;;;;;;4.1;2.2;;;;;;;;;;;;;
2019/07/12 06:26:20;;;;;;;4;2.3;;;;;;;;;;;;;
2019/07/12 06:28:53;;;;;;;6.1;2.4;;;;;;;;;;;;;
2019/07/12 06:31:14;;;;;;;7.1;2.2;;;;;;;;;;;;;
2019/07/12 06:33:34;;;;;;;4.7;2.6;;;;;;;;;;;;;
2019/07/12 06:36:00;;;;;;;7.9;3;;;;;;;;;;;;;
2019/07/12 06:38:29;;;;;;;3.2;1.9;;;;;;;;;;;;;
2019/07/12 06:40:51;;;;;;;3.6;2.4;;;;;;;;;;;;;
2019/07/12 06:43:16;;;;;;;5.7;2.6;;;;;;;;;;;;;
2019/07/12 06:45:42;;;;;;;7.7;2.9;;;;;;;;;;;;;
2019/07/12 06:48:06;;;;;;;60.1;7.2;;;;;;;;;;;;;
2019/07/12 06:50:35;;;;;;;5.5;2.4;;;;;;;;;;;;;
2019/07/12 06:52:59;;;;;;;7.5;2.3;;;;;;;;;;;;;
2019/07/12 06:55:22;;;;;;;2.8;1.4;;;;;;;;;;;;;
2019/07/12 06:57:49;;;;;;;3.1;1.7;;;;;;;;;;;;;
2019/07/12 07:00:14;;;;;;;7.9;2.2;;;;;;;;;;;;;
2019/07/12 07:02:42;;;;;;;6.1;2.2;;;;;;;;;;;;;
2019/07/12 07:05:03;;;;;;;2.8;1.9;;;;;;;;;;;;;
2019/07/12 07:07:28;;;;;;;5.8;2.1;;;;;;;;;;;;;
2019/07/12 07:09:57;;;;;;;5.2;2.2;;;;;;;;;;;;;
2019/07/12 07:12:18;;;;;;;2.4;1.7;;;;;;;;;;;;;
2019/07/12 07:14:43;;;;;;;3.5;2.2;;;;;;;;;;;;;
2019/07/12 07:17:09;;;;;;;3.7;2;;;;;;;;;;;;;
2019/07/12 07:19:35;;;;;;;4.6;2;;;;;;;;;;;;;
2019/07/12 07:22:03;;;;;;;6.3;2.1;;;;;;;;;;;;;
2019/07/12 07:24:26;;;;;;;2.5;1.7;;;;;;;;;;;;;
2019/07/12 07:26:50;;;;;;;3.4;2.4;;;;;;;;;;;;;
2019/07/12 07:29:15;;;;;;;4.5;2.6;;;;;;;;;;;;;
2019/07/12 07:31:48;;;;;;;3.7;2.7;;;;;;;;;;;;;
2019/07/12 07:34:06;;;;;;;4.9;2.5;;;;;;;;;;;;;
2019/07/12 07:36:32;;;;;;;3.6;2;;;;;;;;;;;;;
2019/07/12 07:38:55;;;;;;;5.4;2.4;;;;;;;;;;;;;
2019/07/12 07:41:20;;;;;;;4.4;2.8;;;;;;;;;;;;;
2019/07/12 07:43:47;;;;;;;4.9;2.7;;;;;;;;;;;;;
2019/07/12 07:46:12;;;;;;;5.6;2.7;;;;;;;;;;;;;
2019/07/12 07:48:37;;;;;;;3.8;2.3;;;;;;;;;;;;;
2019/07/12 07:51:07;;;;;;;4.6;2.1;;;;;;;;;;;;;
2019/07/12 07:53:27;;;;;;;3.1;2.1;;;;;;;;;;;;;
2019/07/12 07:55:53;;;;;;;2.7;1.9;;;;;;;;;;;;;
2019/07/12 07:58:18;;;;;;;5.1;2;;;;;;;;;;;;;
2019/07/12 08:00:43;;;;;;;3.7;1.8;;;;;;;;;;;;;
2019/07/12 08:03:08;;;;;;;3.2;2;;;;;;;;;;;;;
2019/07/12 08:05:41;;;;;;;3.3;1.9;;;;;;;;;;;;;
2019/07/12 08:07:59;;;;;;;2.7;2;;;;;;;;;;;;;
2019/07/12 08:10:23;;;;;;;3.3;1.9;;;;;;;;;;;;;
2019/07/12 08:12:55;;;;;;;2.8;1.7;;;;;;;;;;;;;
2019/07/12 08:15:14;;;;;;;4.6;1.7;;;;;;;;;;;;;
2019/07/12 08:17:39;;;;;;;3.4;2.1;;;;;;;;;;;;;
2019/07/12 08:20:04;;;;;;;4.1;1.8;;;;;;;;;;;;;
2019/07/12 08:22:33;;;;;;;3.7;1.8;;;;;;;;;;;;;
2019/07/12 08:24:55;;;;;;;2.4;1.4;;;;;;;;;;;;;
2019/07/12 08:27:19;;;;;;;3.2;1.6;;;;;;;;;;;;;
2019/07/12 08:29:45;;;;;;;2.4;1.6;;;;;;;;;;;;;
2019/07/12 08:32:11;;;;;;;1.6;1.4;;;;;;;;;;;;;
2019/07/12 08:34:36;;;;;;;2.7;1.7;;;;;;;;;;;;;
2019/07/12 08:37:00;;;;;;;1.9;1.6;;;;;;;;;;;;;
2019/07/12 08:39:26;;;;;;;2.3;1.5;;;;;;;;;;;;;
2019/07/12 08:41:52;;;;;;;2.2;1.4;;;;;;;;;;;;;
2019/07/12 08:44:16;;;;;;;3.1;1.5;;;;;;;;;;;;;
2019/07/12 08:46:44;;;;;;;2.9;1.7;;;;;;;;;;;;;
2019/07/12 08:49:05;;;;;;;2.6;1.6;;;;;;;;;;;;;
2019/07/12 08:51:31;;;;;;;4.8;1.8;;;;;;;;;;;;;
2019/07/12 08:53:59;;;;;;;2.4;1.7;;;;;;;;;;;;;
2019/07/12 08:56:21;;;;;;;3.9;1.6;;;;;;;;;;;;;
2019/07/12 08:58:46;;;;;;;3.8;1.9;;;;;;;;;;;;;
2019/07/12 09:01:11;;;;;;;6.1;1.8;;;;;;;;;;;;;
2019/07/12 09:03:43;;;;;;;3.8;1.7;;;;;;;;;;;;;
2019/07/12 09:06:05;;;;;;;3.6;1.6;;;;;;;;;;;;;
2019/07/12 09:08:26;;;;;;;3.7;1.7;;;;;;;;;;;;;
2019/07/12 09:10:52;;;;;;;3.7;1.7;;;;;;;;;;;;;
2019/07/12 09:13:24;;;;;;;4.4;1.5;;;;;;;;;;;;;
2019/07/12 09:15:42;;;;;;;2.3;1.5;;;;;;;;;;;;;
2019/07/12 09:18:08;;;;;;;3;1.6;;;;;;;;;;;;;
2019/07/12 09:20:33;;;;;;;2.1;1.6;;;;;;;;;;;;;
2019/07/12 09:23:03;;;;;;;4.7;1.7;;;;;;;;;;;;;
2019/07/12 09:25:24;;;;;;;3.1;1.6;;;;;;;;;;;;;
2019/07/12 09:27:50;;;;;;;4;1.7;;;;;;;;;;;;;
2019/07/12 09:30:15;;;;;;;5.5;1.7;;;;;;;;;;;;;
2019/07/12 09:32:39;;;;;;;3;1.6;;;;;;;;;;;;;
2019/07/12 09:35:08;;;;;;;2.1;1.5;;;;;;;;;;;;;
2019/07/12 09:37:36;;;;;;;4.5;1.7;;;;;;;;;;;;;
2019/07/12 09:39:54;;;;;;;2.1;1.3;;;;;;;;;;;;;
2019/07/12 09:42:21;;;;;;;2.3;1.4;;;;;;;;;;;;;
2019/07/12 09:44:46;;;;;;;4.6;1.5;;;;;;;;;;;;;
2019/07/12 09:47:13;;;;;;;2.4;1.6;;;;;;;;;;;;;
2019/07/12 09:49:37;;;;;;;6.5;2;;;;;;;;;;;;;
2019/07/12 09:52:03;;;;;;;5.2;1.8;;;;;;;;;;;;;
2019/07/12 09:54:27;;;;;;;4.2;1.6;;;;;;;;;;;;;
2019/07/12 09:56:54;;;;;;;6.1;1.7;;;;;;;;;;;;;
2019/07/12 09:59:21;;;;;;;3.8;1.4;;;;;;;;;;;;;
2019/07/12 10:01:48;;;;;;;3.2;1.4;;;;;;;;;;;;;
2019/07/12 10:04:13;;;;;;;4.6;1.7;;;;;;;;;;;;;
2019/07/12 10:06:38;;;;;;;6.2;1.7;;;;;;;;;;;;;
2019/07/12 10:09:02;;;;;;;4.7;1.7;;;;;;;;;;;;;
2019/07/12 10:11:27;;;;;;;3.8;1.6;;;;;;;;;;;;;
2019/07/12 10:13:52;;;;;;;3.4;1.9;;;;;;;;;;;;;
2019/07/12 10:16:17;;;;;;;4.8;1.8;;;;;;;;;;;;;
2019/07/12 10:18:43;;;;;;;4.1;1.7;;;;;;;;;;;;;
2019/07/12 10:21:09;;;;;;;3.5;2;;;;;;;;;;;;;
2019/07/12 10:23:33;;;;;;;3.2;1.8;;;;;;;;;;;;;
2019/07/12 10:25:59;;;;;;;2.7;1.6;;;;;;;;;;;;;
2019/07/12 10:28:23;;;;;;;2.4;1.6;;;;;;;;;;;;;
2019/07/12 10:30:49;;;;;;;5;1.8;;;;;;;;;;;;;
2019/07/12 10:33:17;;;;;;;2.3;1.3;;;;;;;;;;;;;
2019/07/12 10:35:38;;;;;;;2.9;1.3;;;;;;;;;;;;;
2019/07/12 10:38:03;;;;;;;2.4;1.7;;;;;;;;;;;;;
2019/07/12 10:40:29;;;;;;;3.3;1.7;;;;;;;;;;;;;
2019/07/12 10:42:53;;;;;;;2.1;1.4;;;;;;;;;;;;;
2019/07/12 10:45:19;;;;;;;3.9;1.8;;;;;;;;;;;;;
2019/07/12 10:47:47;;;;;;;2.5;1.7;;;;;;;;;;;;;
2019/07/12 10:50:14;;;;;;;1.6;1.5;;;;;;;;;;;;;
2019/07/12 10:52:39;;;;;;;2.4;1.9;;;;;;;;;;;;;
2019/07/12 10:55:03;;;;;;;3.2;1.9;;;;;;;;;;;;;
2019/07/12 10:57:29;;;;;;;4.7;2;;;;;;;;;;;;;
2019/07/12 10:59:53;;;;;;;3.3;2;;;;;;;;;;;;;
2019/07/12 11:02:19;;;;;;;3.8;1.9;;;;;;;;;;;;;
2019/07/12 11:04:44;;;;;;;3.5;2;;;;;;;;;;;;;
2019/07/12 11:07:09;;;;;;;3.2;1.8;;;;;;;;;;;;;
2019/07/12 11:09:37;;;;;;;2.8;1.5;;;;;;;;;;;;;
2019/07/12 11:12:04;;;;;;;2.6;1.6;;;;;;;;;;;;;
2019/07/12 11:14:28;;;;;;;3.6;1.3;;;;;;;;;;;;;
2019/07/12 11:16:52;;;;;;;2.6;1.4;;;;;;;;;;;;;
2019/07/12 11:19:19;;;;;;;2.4;1.4;;;;;;;;;;;;;
2019/07/12 11:21:43;;;;;;;4.1;1.7;;;;;;;;;;;;;
2019/07/12 11:24:08;;;;;;;3.6;1.5;;;;;;;;;;;;;
2019/07/12 11:26:36;;;;;;;2.7;1.4;;;;;;;;;;;;;
2019/07/12 11:29:03;;;;;;;2.4;1.4;;;;;;;;;;;;;
2019/07/12 11:31:24;;;;;;;1.6;1.1;;;;;;;;;;;;;
2019/07/12 11:33:50;;;;;;;2.7;1.8;;;;;;;;;;;;;
2019/07/12 11:36:14;;;;;;;3.6;1.5;;;;;;;;;;;;;
2019/07/12 11:38:41;;;;;;;2.7;1.6;;;;;;;;;;;;;
2019/07/12 11:41:06;;;;;;;2.4;1.7;;;;;;;;;;;;;
2019/07/12 11:43:31;;;;;;;3.1;1.6;;;;;;;;;;;;;
2019/07/12 11:45:58;;;;;;;2.9;1.4;;;;;;;;;;;;;
2019/07/12 11:48:21;;;;;;;5.7;2.1;;;;;;;;;;;;;
2019/07/12 11:50:47;;;;;;;2.8;1.6;;;;;;;;;;;;;
2019/07/12 11:53:12;;;;;;;3.6;1.3;;;;;;;;;;;;;
2019/07/12 11:55:41;;;;;;;3.4;1.6;;;;;;;;;;;;;
2019/07/12 11:58:07;;;;;;;3.1;1.5;;;;;;;;;;;;;
2019/07/12 12:00:32;;;;;;;4.2;1.5;;;;;;;;;;;;;
2019/07/12 12:02:58;;;;;;;2.3;1.6;;;;;;;;;;;;;
2019/07/12 12:05:26;;;;;;;2.8;1.8;;;;;;;;;;;;;
2019/07/12 12:07:52;;;;;;;2.4;1.1;;;;;;;;;;;;;
2019/07/12 12:10:18;;;;;;;3;1.2;;;;;;;;;;;;;
2019/07/12 12:12:45;;;;;;;2.4;1.2;;;;;;;;;;;;;
2019/07/12 12:15:07;;;;;;;2.4;1.1;;;;;;;;;;;;;
2019/07/12 12:17:34;;;;;;;2.7;1.2;;;;;;;;;;;;;
2019/07/12 12:19:59;;;;;;;1.9;1.2;;;;;;;;;;;;;
2019/07/12 12:22:24;;;;;;;2.2;1.2;;;;;;;;;;;;;
2019/07/12 12:24:49;;;;;;;1.7;1.2;;;;;;;;;;;;;
2019/07/12 12:27:16;;;;;;;4.1;1.7;;;;;;;;;;;;;
2019/07/12 12:29:41;;;;;;;2.5;1.3;;;;;;;;;;;;;
2019/07/12 12:32:05;;;;;;;2.7;1;;;;;;;;;;;;;
2019/07/12 12:34:30;;;;;;;2.6;1.1;;;;;;;;;;;;;
2019/07/12 12:36:54;;;;;;;1.2;0.8;;;;;;;;;;;;;
2019/07/12 12:39:21;;;;;;;1.4;0.9;;;;;;;;;;;;;
2019/07/12 12:41:46;;;;;;;1.5;1;;;;;;;;;;;;;
2019/07/12 12:44:10;;;;;;;2;1.1;;;;;;;;;;;;;
2019/07/12 12:46:37;;;;;;;2.7;1.3;;;;;;;;;;;;;
2019/07/12 12:49:01;;;;;;;3.8;1.5;;;;;;;;;;;;;
2019/07/12 12:51:26;;;;;;;3.8;1.5;;;;;;;;;;;;;
2019/07/12 12:53:51;;;;;;;5.3;1.3;;;;;;;;;;;;;
2019/07/12 12:56:16;;;;;;;3.1;1.4;;;;;;;;;;;;;
2019/07/12 12:58:43;;;;;;;3.7;0.9;;;;;;;;;;;;;
2019/07/12 13:01:07;;;;;;;5.5;1.3;;;;;;;;;;;;;
2019/07/12 13:03:32;;;;;;;2;1.1;;;;;;;;;;;;;
2019/07/12 13:05:56;;;;;;;4.9;2;;;;;;;;;;;;;
2019/07/12 13:08:21;;;;;;;2.3;1.3;;;;;;;;;;;;;
2019/07/12 13:10:55;;;;;;;2;1.5;;;;;;;;;;;;;
2019/07/12 13:13:11;;;;;;;1.9;1.2;;;;;;;;;;;;;
2019/07/12 13:15:37;;;;;;;3.9;1.3;;;;;;;;;;;;;
2019/07/12 13:18:03;;;;;;;2.4;1.3;;;;;;;;;;;;;
2019/07/12 13:20:29;;;;;;;2.1;1.2;;;;;;;;;;;;;
2019/07/12 13:22:56;;;;;;;2.9;1;;;;;;;;;;;;;
2019/07/12 13:25:18;;;;;;;1.8;0.9;;;;;;;;;;;;;
2019/07/12 13:27:44;;;;;;;3.1;1.2;;;;;;;;;;;;;
2019/07/12 13:30:10;;;;;;;1.8;0.9;;;;;;;;;;;;;
2019/07/12 13:32:34;;;;;;;2.5;1.1;;;;;;;;;;;;;
2019/07/12 13:35:01;;;;;;;3.6;1.2;;;;;;;;;;;;;
2019/07/12 13:37:24;;;;;;;3.3;1.3;;;;;;;;;;;;;
2019/07/12 13:39:51;;;;;;;2.3;1.1;;;;;;;;;;;;;
2019/07/12 13:42:16;;;;;;;1.6;1;;;;;;;;;;;;;
2019/07/12 13:44:41;;;;;;;2.6;1;;;;;;;;;;;;;
2019/07/12 13:47:14;;;;;;;3.5;1.1;;;;;;;;;;;;;
2019/07/12 13:49:32;;;;;;;2.1;1.1;;;;;;;;;;;;;
2019/07/12 13:52:01;;;;;;;3;1.4;;;;;;;;;;;;;
2019/07/12 13:54:21;;;;;;;3.8;1.2;;;;;;;;;;;;;
2019/07/12 13:56:46;;;;;;;2.1;0.9;;;;;;;;;;;;;
2019/07/12 13:59:13;;;;;;;3.2;1.1;;;;;;;;;;;;;
2019/07/12 14:01:40;;;;;;;1.6;0.9;;;;;;;;;;;;;
2019/07/12 14:04:02;;;;;;;1.5;0.8;;;;;;;;;;;;;
2019/07/12 14:06:26;;;;;;;1.2;0.7;;;;;;;;;;;;;
2019/07/12 14:08:53;;;;;;;1.9;0.7;;;;;;;;;;;;;
2019/07/12 14:11:17;;;;;;;1.9;0.8;;;;;;;;;;;;;
2019/07/12 14:13:44;;;;;;;1.7;0.8;;;;;;;;;;;;;
2019/07/12 14:16:07;;;;;;;1.6;1;;;;;;;;;;;;;
2019/07/12 14:18:34;;;;;;;2.1;0.8;;;;;;;;;;;;;
2019/07/12 14:20:59;;;;;;;1.8;0.9;;;;;;;;;;;;;
2019/07/12 14:23:23;;;;;;;2.8;1;;;;;;;;;;;;;
2019/07/12 14:25:47;;;;;;;1;0.8;;;;;;;;;;;;;
2019/07/12 14:28:12;;;;;;;1.5;0.7;;;;;;;;;;;;;
2019/07/12 14:30:39;;;;;;;1;0.8;;;;;;;;;;;;;
2019/07/12 14:33:04;;;;;;;1.8;0.8;;;;;;;;;;;;;
2019/07/12 14:35:29;;;;;;;2.8;0.7;;;;;;;;;;;;;
2019/07/12 14:37:58;;;;;;;3.1;0.9;;;;;;;;;;;;;
2019/07/12 14:40:20;;;;;;;1;0.7;;;;;;;;;;;;;
2019/07/12 14:42:51;;;;;;;0.8;0.6;;;;;;;;;;;;;
2019/07/12 14:45:11;;;;;;;1.5;0.7;;;;;;;;;;;;;
2019/07/12 14:47:37;;;;;;;1.8;0.7;;;;;;;;;;;;;
2019/07/12 14:50:01;;;;;;;3.7;0.7;;;;;;;;;;;;;
2019/07/12 14:52:29;;;;;;;1.4;0.6;;;;;;;;;;;;;
2019/07/12 14:54:51;;;;;;;1.2;0.8;;;;;;;;;;;;;
2019/07/12 14:57:18;;;;;;;0.8;0.5;;;;;;;;;;;;;
2019/07/12 14:59:44;;;;;;;2.1;0.8;;;;;;;;;;;;;
2019/07/12 15:02:08;;;;;;;1.5;0.7;;;;;;;;;;;;;
2019/07/12 15:04:32;;;;;;;1.3;0.7;;;;;;;;;;;;;
2019/07/12 15:07:05;;;;;;;1.7;0.8;;;;;;;;;;;;;
2019/07/12 15:09:27;;;;;;;1.4;0.7;;;;;;;;;;;;;
2019/07/12 15:11:48;;;;;;;0.9;0.5;;;;;;;;;;;;;
2019/07/12 15:14:14;;;;;;;1.5;0.7;;;;;;;;;;;;;
2019/07/12 15:16:38;;;;;;;1.4;0.5;;;;;;;;;;;;;
2019/07/12 15:19:03;;;;;;;1.7;0.7;;;;;;;;;;;;;
2019/07/12 15:21:31;;;;;;;1.7;0.6;;;;;;;;;;;;;
2019/07/12 15:23:58;;;;;;;1.4;0.7;;;;;;;;;;;;;
2019/07/12 15:26:27;;;;;;;0.7;0.5;;;;;;;;;;;;;
2019/07/12 15:28:48;;;;;;;1.6;0.6;;;;;;;;;;;;;
2019/07/12 15:31:12;;;;;;;1.5;0.6;;;;;;;;;;;;;
2019/07/12 15:33:37;;;;;;;2.4;0.7;;;;;;;;;;;;;
2019/07/12 15:36:02;;;;;;;2.7;0.7;;;;;;;;;;;;;
2019/07/12 15:38:28;;;;;;;2.1;0.7;;;;;;;;;;;;;
2019/07/12 15:40:54;;;;;;;2;0.7;;;;;;;;;;;;;
2019/07/12 15:43:21;;;;;;;1.7;0.7;;;;;;;;;;;;;
2019/07/12 15:45:44;;;;;;;1.4;0.7;;;;;;;;;;;;;
2019/07/12 15:48:09;;;;;;;3.1;0.7;;;;;;;;;;;;;
2019/07/12 15:50:39;;;;;;;2.2;0.6;;;;;;;;;;;;;
2019/07/12 15:53:01;;;;;;;1.2;0.7;;;;;;;;;;;;;
2019/07/12 15:55:29;;;;;;;1.9;0.8;;;;;;;;;;;;;
2019/07/12 15:57:51;;;;;;;1.2;0.8;;;;;;;;;;;;;
2019/07/12 16:00:16;;;;;;;1.2;0.8;;;;;;;;;;;;;
2019/07/12 16:02:45;;;;;;;2;0.7;;;;;;;;;;;;;
2019/07/12 16:05:06;;;;;;;2.3;0.8;;;;;;;;;;;;;
2019/07/12 16:07:30;;;;;;;1;0.5;;;;;;;;;;;;;
2019/07/12 16:09:56;;;;;;;2.2;0.7;;;;;;;;;;;;;
2019/07/12 16:12:22;;;;;;;1;0.6;;;;;;;;;;;;;
2019/07/12 16:14:46;;;;;;;1.6;0.7;;;;;;;;;;;;;
2019/07/12 16:17:12;;;;;;;2.4;0.9;;;;;;;;;;;;;
2019/07/12 16:19:38;;;;;;;1.5;0.9;;;;;;;;;;;;;
2019/07/12 16:22:05;;;;;;;1;0.6;;;;;;;;;;;;;
2019/07/12 16:24:27;;;;;;;2.6;0.8;;;;;;;;;;;;;
2019/07/12 16:26:54;;;;;;;1.2;0.7;;;;;;;;;;;;;
2019/07/12 16:29:22;;;;;;;1.1;0.7;;;;;;;;;;;;;
2019/07/12 16:31:48;;;;;;;2.7;0.8;;;;;;;;;;;;;
2019/07/12 16:34:12;;;;;;;3.1;0.8;;;;;;;;;;;;;
2019/07/12 16:36:36;;;;;;;4.3;1.2;;;;;;;;;;;;;
2019/07/12 16:39:07;;;;;;;4.2;0.8;;;;;;;;;;;;;
2019/07/12 16:41:25;;;;;;;4.1;0.9;;;;;;;;;;;;;
2019/07/12 16:43:53;;;;;;;1.9;0.7;;;;;;;;;;;;;
2019/07/12 16:46:25;;;;;;;1.6;0.8;;;;;;;;;;;;;
2019/07/12 16:48:40;;;;;;;1;0.8;;;;;;;;;;;;;
2019/07/12 16:51:07;;;;;;;3.1;0.9;;;;;;;;;;;;;
2019/07/12 16:53:35;;;;;;;4.4;0.9;;;;;;;;;;;;;
2019/07/12 16:55:56;;;;;;;2;0.9;;;;;;;;;;;;;
2019/07/12 16:58:23;;;;;;;3.6;0.7;;;;;;;;;;;;;
2019/07/12 17:00:48;;;;;;;2.1;0.7;;;;;;;;;;;;;
2019/07/12 17:03:14;;;;;;;2.7;0.9;;;;;;;;;;;;;
2019/07/12 17:05:38;;;;;;;2.4;0.8;;;;;;;;;;;;;
2019/07/12 17:08:02;;;;;;;2.2;0.7;;;;;;;;;;;;;
2019/07/12 17:10:30;;;;;;;2.3;0.9;;;;;;;;;;;;;
2019/07/12 17:12:52;;;;;;;3.2;0.9;;;;;;;;;;;;;
2019/07/12 17:15:17;;;;;;;1.4;0.8;;;;;;;;;;;;;
2019/07/12 17:17:42;;;;;;;1.2;0.8;;;;;;;;;;;;;
2019/07/12 17:20:14;;;;;;;2.9;1.3;;;;;;;;;;;;;
2019/07/12 17:22:33;;;;;;;2.7;1.2;;;;;;;;;;;;;
2019/07/12 17:24:58;;;;;;;4.5;1.3;;;;;;;;;;;;;
2019/07/12 17:27:23;;;;;;;2.9;1.4;;;;;;;;;;;;;
2019/07/12 17:29:51;;;;;;;3.7;1.7;;;;;;;;;;;;;
2019/07/12 17:32:15;;;;;;;3;1.6;;;;;;;;;;;;;
2019/07/12 17:34:41;;;;;;;2.9;1.5;;;;;;;;;;;;;
2019/07/12 17:37:09;;;;;;;3.6;1.4;;;;;;;;;;;;;
2019/07/12 17:39:35;;;;;;;2.1;1.2;;;;;;;;;;;;;
2019/07/12 17:42:00;;;;;;;2.1;1.3;;;;;;;;;;;;;
2019/07/12 17:44:22;;;;;;;1.8;1.1;;;;;;;;;;;;;
2019/07/12 17:46:48;;;;;;;3.1;1.4;;;;;;;;;;;;;
2019/07/12 17:52:21;;;;;;;3.7;1.4;;;;;;;;;;;;;
2019/07/12 17:54:44;;;;;;;2.7;1.4;;;;;;;;;;;;;
2019/07/12 17:57:10;;;;;;;3.1;1.6;;;;;;;;;;;;;
2019/07/12 17:59:50;;;;;;;6;1.9;;;;;;;;;;;;;
2019/07/12 18:02:01;;;;;;;4.9;1.8;;;;;;;;;;;;;
2019/07/12 18:04:26;;;;;;;3.9;1.8;;;;;;;;;;;;;
2019/07/12 18:06:55;;;;;;;2.8;1.5;;;;;;;;;;;;;
2019/07/12 18:09:16;;;;;;;3;1.6;;;;;;;;;;;;;
2019/07/12 18:11:41;;;;;;;3.2;1.4;;;;;;;;;;;;;
2019/07/12 18:14:07;;;;;;;2.9;1.7;;;;;;;;;;;;;
2019/07/12 18:16:32;;;;;;;3.4;1.8;;;;;;;;;;;;;
2019/07/12 18:18:56;;;;;;;4.4;1.8;;;;;;;;;;;;;
2019/07/12 18:21:24;;;;;;;5.4;2.3;;;;;;;;;;;;;
2019/07/12 18:23:48;;;;;;;3.6;1.9;;;;;;;;;;;;;
2019/07/12 18:26:13;;;;;;;2.9;2;;;;;;;;;;;;;
2019/07/12 18:28:41;;;;;;;4.9;1.8;;;;;;;;;;;;;
2019/07/12 18:31:05;;;;;;;4.1;2;;;;;;;;;;;;;
2019/07/12 18:33:31;;;;;;;4.9;2.2;;;;;;;;;;;;;
2019/07/12 18:35:57;;;;;;;5.3;3;;;;;;;;;;;;;
2019/07/12 18:38:28;;;;;;;3.6;1.8;;;;;;;;;;;;;
2019/07/12 18:40:47;;;;;;;4.3;2.1;;;;;;;;;;;;;
2019/07/12 18:43:11;;;;;;;6.9;2.9;;;;;;;;;;;;;
2019/07/12 18:45:37;;;;;;;6.9;2.7;;;;;;;;;;;;;
2019/07/12 18:48:04;;;;;;;4.8;2.5;;;;;;;;;;;;;
2019/07/12 18:50:31;;;;;;;3.4;2.6;;;;;;;;;;;;;
2019/07/12 18:52:54;;;;;;;3.8;2.7;;;;;;;;;;;;;
2019/07/12 18:55:17;;;;;;;6.2;2.8;;;;;;;;;;;;;
2019/07/12 18:57:48;;;;;;;4.6;2.5;;;;;;;;;;;;;
2019/07/12 19:00:08;;;;;;;3.8;2.8;;;;;;;;;;;;;
2019/07/12 19:02:33;;;;;;;6.1;2.4;;;;;;;;;;;;;
2019/07/12 19:04:58;;;;;;;3.5;2.5;;;;;;;;;;;;;
2019/07/12 19:07:28;;;;;;;3;2.3;;;;;;;;;;;;;
2019/07/12 19:09:49;;;;;;;4.2;2.5;;;;;;;;;;;;;
2019/07/12 19:12:13;;;;;;;4.9;2.9;;;;;;;;;;;;;
2019/07/12 19:14:39;;;;;;;4;3.1;;;;;;;;;;;;;
2019/07/12 19:17:03;;;;;;;4.3;2.8;;;;;;;;;;;;;
2019/07/12 19:19:33;;;;;;;4.5;3.2;;;;;;;;;;;;;
2019/07/12 19:21:58;;;;;;;9.5;4.3;;;;;;;;;;;;;
2019/07/12 19:24:20;;;;;;;5.9;3.7;;;;;;;;;;;;;
2019/07/12 19:26:43;;;;;;;8.6;4.4;;;;;;;;;;;;;
2019/07/12 19:29:11;;;;;;;8.6;4.3;;;;;;;;;;;;;
2019/07/12 19:31:37;;;;;;;5.4;2.9;;;;;;;;;;;;;
2019/07/12 19:33:59;;;;;;;7.9;3.4;;;;;;;;;;;;;
2019/07/12 19:36:25;;;;;;;6.2;3.3;;;;;;;;;;;;;
2019/07/12 19:38:51;;;;;;;5.8;3.1;;;;;;;;;;;;;
2019/07/12 19:41:17;;;;;;;5.1;3.1;;;;;;;;;;;;;
2019/07/12 19:43:40;;;;;;;4.9;3.6;;;;;;;;;;;;;
2019/07/12 19:51:01;;;;;;;5.7;3.3;;;;;;;;;;;;;
2019/07/12 19:53:30;;;;;;;5.2;3.4;;;;;;;;;;;;;
2019/07/12 19:55:54;;;;;;;5.7;3.6;;;;;;;;;;;;;
2019/07/12 19:58:19;;;;;;;3.7;3;;;;;;;;;;;;;
2019/07/12 20:00:48;;;;;;;5;3.4;;;;;;;;;;;;;
2019/07/12 20:03:09;;;;;;;5.5;3.2;;;;;;;;;;;;;
2019/07/12 20:05:35;;;;;;;7.9;3.8;;;;;;;;;;;;;
2019/07/12 20:08:00;;;;;;;7.9;4.9;;;;;;;;;;;;;
2019/07/12 20:10:26;;;;;;;7.9;4.2;;;;;;;;;;;;;
2019/07/12 20:12:53;;;;;;;6.5;3.5;;;;;;;;;;;;;
2019/07/12 20:15:17;;;;;;;6.8;3.8;;;;;;;;;;;;;
2019/07/12 20:17:40;;;;;;;11.1;4.4;;;;;;;;;;;;;
2019/07/12 20:20:08;;;;;;;17.3;6.5;;;;;;;;;;;;;